Time;durP1;ratioP1;P1;durP2;ratioP2;P2;SDS_P1;SDS_P2;PMS_P1;PMS_P2;Temp;Humidity;BMP_temperature;BMP_pressure;BME280_temperature;BME280_humidity;BME280_pressure;Samples;Min_cycle;Max_cycle;Signal;HPM_P1;HPM_P2
2023/06/21 00:00:35;;;;;;;32.20;24.60;;;;;;;;;;5126484;28;20476;-60
2023/06/21 00:03:04;;;;;;;31.00;25.03;;;;;;;;;;5124308;28;20516;-61
2023/06/21 00:05:31;;;;;;;32.83;25.60;;;22.50;99.90;;;;;;5125613;28;20490;-60
2023/06/21 00:07:59;;;;;;;30.90;25.07;;;22.50;99.90;;;;;;5124007;28;20821;-60
2023/06/21 00:10:29;;;;;;;31.00;24.43;;;22.40;99.90;;;;;;5122489;28;20508;-61
2023/06/21 00:12:56;;;;;;;31.33;26.30;;;22.20;99.90;;;;;;5135169;28;20440;-59
2023/06/21 00:15:24;;;;;;;30.90;25.47;;;22.40;99.90;;;;;;5126751;28;20520;-60
2023/06/21 00:17:51;;;;;;;33.87;26.77;;;;;;;;;;5124929;28;20706;-60
2023/06/21 00:20:21;;;;;;;32.07;24.87;;;22.20;99.90;;;;;;5121997;28;20556;-62
2023/06/21 00:22:55;;;;;;;35.27;25.80;;;22.40;99.90;;;;;;5123366;28;20444;-60
2023/06/21 00:25:24;;;;;;;33.90;25.97;;;23.20;99.90;;;;;;5122973;28;20473;-61
2023/06/21 00:27:51;;;;;;;30.10;25.00;;;22.60;99.90;;;;;;5118722;28;20452;-61
2023/06/21 00:30:18;;;;;;;30.57;25.37;;;22.50;99.90;;;;;;5116696;28;20490;-61
2023/06/21 00:32:45;;;;;;;30.93;24.70;;;22.10;99.90;;;;;;5119298;28;20448;-61
2023/06/21 00:35:13;;;;;;;30.03;25.10;;;;;;;;;;5119918;28;20460;-60
2023/06/21 00:37:40;;;;;;;31.77;24.50;;;;;;;;;;5126826;28;20428;-61
2023/06/21 00:40:12;;;;;;;32.20;26.40;;;22.20;99.90;;;;;;5121979;28;20476;-61
2023/06/21 00:42:41;;;;;;;29.10;24.40;;;;;;;;;;5122278;28;20425;-60
2023/06/21 00:45:14;;;;;;;27.80;24.43;;;22.20;99.90;;;;;;5121472;28;20461;-60
2023/06/21 00:47:42;;;;;;;33.13;23.90;;;;;;;;;;5124372;28;20429;-62
2023/06/21 00:50:09;;;;;;;28.70;23.37;;;22.70;99.90;;;;;;5121617;28;20531;-60
2023/06/21 00:52:38;;;;;;;30.30;24.87;;;22.40;99.90;;;;;;5125821;28;20464;-61
2023/06/21 00:55:05;;;;;;;31.57;25.63;;;22.30;99.90;;;;;;5121248;28;20479;-61
2023/06/21 00:57:33;;;;;;;27.60;23.40;;;;;;;;;;5121443;28;20778;-60
2023/06/21 01:00:02;;;;;;;33.03;26.43;;;;;;;;;;5121143;28;20787;-60
2023/06/21 01:02:31;;;;;;;27.87;24.80;;;22.20;99.90;;;;;;5116728;28;20468;-61
2023/06/21 01:04:58;;;;;;;29.00;25.27;;;;;;;;;;5117220;28;20466;-61
2023/06/21 01:07:37;;;;;;;29.67;23.87;;;22.10;99.90;;;;;;5120088;28;20538;-60
2023/06/21 01:10:14;;;;;;;30.97;25.30;;;22.20;99.90;;;;;;5115910;28;20543;-60
2023/06/21 01:12:48;;;;;;;32.37;24.27;;;22.60;99.90;;;;;;5116868;28;20468;-60
2023/06/21 01:15:24;;;;;;;29.17;23.03;;;22.10;99.90;;;;;;5119641;28;20487;-61
2023/06/21 01:17:53;;;;;;;29.33;23.37;;;22.40;99.90;;;;;;5116320;28;20562;-59
2023/06/21 01:20:28;;;;;;;30.53;24.97;;;21.90;99.90;;;;;;5116226;28;20458;-57
2023/06/21 01:23:09;;;;;;;30.60;22.77;;;21.90;99.90;;;;;;5116678;28;20476;-60
2023/06/21 01:25:46;;;;;;;26.60;22.30;;;22.20;99.90;;;;;;5118655;28;20448;-59
2023/06/21 01:28:34;;;;;;;27.00;22.20;;;22.00;99.90;;;;;;5121310;28;20456;-59
2023/06/21 01:31:02;;;;;;;28.83;23.07;;;22.50;99.90;;;;;;5118177;28;20515;-60
2023/06/21 01:33:31;;;;;;;25.87;21.90;;;22.40;99.90;;;;;;5117639;28;20537;-61
2023/06/21 01:36:02;;;;;;;29.50;22.60;;;22.20;99.90;;;;;;5116403;28;20484;-60
2023/06/21 01:38:29;;;;;;;24.87;21.33;;;;;;;;;;5117300;28;20493;-60
2023/06/21 01:40:56;;;;;;;27.23;21.00;;;22.30;99.90;;;;;;5121060;28;20543;-61
2023/06/21 01:43:24;;;;;;;24.80;21.60;;;22.30;99.90;;;;;;5123631;28;20476;-59
2023/06/21 01:45:52;;;;;;;25.73;20.23;;;22.20;99.90;;;;;;5123788;28;20467;-60
2023/06/21 01:48:21;;;;;;;27.77;23.33;;;22.60;99.90;;;;;;5115625;28;20555;-59
2023/06/21 01:50:50;;;;;;;27.13;21.50;;;22.90;99.90;;;;;;5115664;28;20453;-60
2023/06/21 01:53:19;;;;;;;26.13;19.07;;;22.20;99.90;;;;;;5115556;28;20537;-61
2023/06/21 01:55:50;;;;;;;27.67;21.50;;;22.20;99.90;;;;;;5114924;28;20523;-59
2023/06/21 01:58:17;;;;;;;25.57;21.90;;;22.30;99.90;;;;;;5115059;28;20555;-60
2023/06/21 02:00:45;;;;;;;26.37;21.10;;;;;;;;;;5116418;28;20933;-61
2023/06/21 02:03:14;;;;;;;22.97;19.20;;;22.10;99.90;;;;;;5117072;28;20472;-61
2023/06/21 02:05:44;;;;;;;27.00;22.73;;;22.30;99.90;;;;;;5115473;28;20513;-60
2023/06/21 02:08:16;;;;;;;25.60;19.33;;;22.10;99.90;;;;;;5115524;28;20952;-61
2023/06/21 02:10:44;;;;;;;22.57;19.40;;;;;;;;;;5117612;28;20830;-60
2023/06/21 02:13:15;;;;;;;27.63;22.83;;;22.20;99.90;;;;;;5121195;28;20960;-60
2023/06/21 02:15:42;;;;;;;27.47;19.70;;;;;;;;;;5122224;28;20452;-58
2023/06/21 02:18:09;;;;;;;29.30;20.83;;;22.30;99.90;;;;;;5124181;28;20524;-60
2023/06/21 02:20:37;;;;;;;27.10;20.53;;;;;;;;;;5120641;28;20452;-59
2023/06/21 02:23:06;;;;;;;23.97;20.30;;;22.10;99.90;;;;;;5119385;28;20436;-59
2023/06/21 02:25:35;;;;;;;23.00;20.37;;;;;;;;;;5115993;28;20459;-59
2023/06/21 02:28:03;;;;;;;23.10;19.80;;;;;;;;;;5116445;28;20593;-60
2023/06/21 02:30:30;;;;;;;28.47;20.43;;;;;;;;;;5121146;28;20429;-61
2023/06/21 02:32:59;;;;;;;34.53;22.23;;;22.20;99.90;;;;;;5121014;28;20467;-60
2023/06/21 02:35:26;;;;;;;28.13;22.43;;;;;;;;;;5120562;28;20552;-57
2023/06/21 02:37:53;;;;;;;30.23;21.03;;;22.10;99.90;;;;;;5120307;28;20480;-59
2023/06/21 02:40:21;;;;;;;30.30;23.67;;;21.90;99.90;;;;;;5126645;28;20495;-61
2023/06/21 02:42:49;;;;;;;29.17;23.20;;;;;;;;;;5126438;28;20464;-60
2023/06/21 02:45:16;;;;;;;28.33;22.13;;;21.70;99.90;;;;;;5122542;28;20444;-59
2023/06/21 02:47:43;;;;;;;30.13;26.00;;;22.10;99.90;;;;;;5124900;28;20489;-60
2023/06/21 02:50:10;;;;;;;28.67;24.73;;;;;;;;;;5124126;28;20949;-60
2023/06/21 02:52:37;;;;;;;27.57;22.07;;;;;;;;;;5120827;28;20444;-61
2023/06/21 02:55:05;;;;;;;31.37;26.13;;;21.90;99.90;;;;;;5120279;28;20521;-60
2023/06/21 02:57:33;;;;;;;30.00;24.40;;;21.50;99.90;;;;;;5120312;28;20480;-60
2023/06/21 03:00:01;;;;;;;27.87;24.80;;;;;;;;;;5119716;28;20530;-60
2023/06/21 03:02:33;;;;;;;29.90;24.57;;;21.50;99.90;;;;;;5120175;28;20575;-59
2023/06/21 03:05:00;;;;;;;33.23;25.80;;;21.70;99.90;;;;;;5120135;28;20468;-60
2023/06/21 03:07:28;;;;;;;34.47;26.70;;;21.70;99.90;;;;;;5120846;28;20986;-60
2023/06/21 03:09:55;;;;;;;34.03;26.70;;;21.40;99.90;;;;;;5118381;28;20476;-60
2023/06/21 03:12:22;;;;;;;31.90;25.77;;;;;;;;;;5118614;28;20543;-61
2023/06/21 03:14:53;;;;;;;32.63;25.80;;;21.50;99.90;;;;;;5118510;28;20551;-60
2023/06/21 03:17:21;;;;;;;42.27;28.07;;;;;;;;;;5118968;28;20571;-59
2023/06/21 03:19:48;;;;;;;38.83;26.10;;;;;;;;;;5118456;28;20544;-59
2023/06/21 03:22:15;;;;;;;37.70;29.23;;;;;;;;;;5118503;28;20535;-61
2023/06/21 03:24:42;;;;;;;36.03;29.00;;;;;;;;;;5118288;28;20486;-59
2023/06/21 03:27:09;;;;;;;34.93;27.43;;;;;;;;;;5119877;28;20459;-61
2023/06/21 03:29:36;;;;;;;31.67;25.37;;;21.50;99.90;;;;;;5118189;28;20502;-60
2023/06/21 03:32:05;;;;;;;37.23;28.87;;;21.80;99.90;;;;;;5118169;28;20527;-59
2023/06/21 03:34:32;;;;;;;34.77;25.93;;;;;;;;;;5118154;28;20476;-60
2023/06/21 03:36:59;;;;;;;34.70;26.63;;;22.20;99.90;;;;;;5118815;28;20548;-60
2023/06/21 03:39:26;;;;;;;36.77;27.47;;;21.80;99.90;;;;;;5121480;28;20519;-61
2023/06/21 03:41:53;;;;;;;34.47;26.97;;;21.70;99.90;;;;;;5121535;28;20480;-61
2023/06/21 03:44:20;;;;;;;34.47;28.07;;;21.60;99.90;;;;;;5118172;28;20440;-59
2023/06/21 03:46:47;;;;;;;34.83;27.60;;;;;;;;;;5117917;28;20548;-60
2023/06/21 03:49:15;;;;;;;36.03;27.20;;;21.60;99.90;;;;;;5117907;28;20455;-61
2023/06/21 03:51:42;;;;;;;40.20;29.20;;;;;;;;;;5118679;28;20494;-59
2023/06/21 03:54:10;;;;;;;40.57;29.20;;;;;;;;;;5120785;28;20471;-60
2023/06/21 03:56:36;;;;;;;40.60;28.20;;;21.70;99.90;;;;;;5121568;28;20484;-61
2023/06/21 03:59:06;;;;;;;43.03;31.40;;;;;;;;;;5123246;28;20529;-60
2023/06/21 04:01:33;;;;;;;46.50;32.60;;;21.60;99.90;;;;;;5125429;28;20503;-60
2023/06/21 04:04:00;;;;;;;44.90;32.07;;;21.60;99.90;;;;;;5128749;28;20496;-60
2023/06/21 04:06:28;;;;;;;51.47;33.13;;;21.60;99.90;;;;;;5123222;28;20471;-60
2023/06/21 04:08:55;;;;;;;43.10;32.40;;;;;;;;;;5126366;28;20480;-59
2023/06/21 04:11:22;;;;;;;41.20;31.60;;;;;;;;;;5121505;28;20511;-59
2023/06/21 04:13:49;;;;;;;49.63;31.87;;;;;;;;;;5117406;28;20440;-59
2023/06/21 04:16:16;;;;;;;44.40;30.40;;;21.60;99.90;;;;;;5117177;28;20467;-61
2023/06/21 04:18:43;;;;;;;44.07;32.87;;;;;;;;;;5118032;28;20531;-60
2023/06/21 04:21:11;;;;;;;48.00;32.83;;;;;;;;;;5118668;28;20469;-60
2023/06/21 04:23:39;;;;;;;41.30;34.13;;;21.60;99.90;;;;;;5123060;28;20479;-59
2023/06/21 04:26:06;;;;;;;43.80;33.57;;;;;;;;;;5123100;28;20448;-60
2023/06/21 04:28:34;;;;;;;50.27;33.03;;;;;;;;;;5123015;28;20442;-60
2023/06/21 04:31:02;;;;;;;52.07;34.00;;;;;;;;;;5122890;28;20536;-59
2023/06/21 04:33:29;;;;;;;45.27;34.80;;;;;;;;;;5122802;28;20543;-60
2023/06/21 04:35:57;;;;;;;41.27;32.20;;;;;;;;;;5122803;28;20452;-60
2023/06/21 04:38:24;;;;;;;39.53;32.00;;;;;;;;;;5122470;28;20872;-57
2023/06/21 04:40:53;;;;;;;41.33;33.50;;;;;;;;;;5125368;28;20441;-60
2023/06/21 04:43:25;;;;;;;38.97;30.70;;;;;;;;;;5123550;28;20464;-60
2023/06/21 04:45:52;;;;;;;43.90;31.93;;;21.80;99.90;;;;;;5123153;28;20874;-60
2023/06/21 04:48:18;;;;;;;41.00;32.67;;;21.80;99.90;;;;;;5126861;28;20518;-61
2023/06/21 04:50:46;;;;;;;38.23;30.67;;;;;;;;;;5122841;28;20702;-60
2023/06/21 04:53:13;;;;;;;43.30;33.50;;;22.00;99.90;;;;;;5122519;28;20559;-60
2023/06/21 04:55:42;;;;;;;43.43;31.83;;;21.90;99.90;;;;;;5122419;28;20449;-60
2023/06/21 04:58:13;;;;;;;41.67;32.53;;;22.10;99.90;;;;;;5123998;28;20494;-61
2023/06/21 05:00:40;;;;;;;51.80;34.13;;;;;;;;;;5122807;28;20468;-60
2023/06/21 05:03:07;;;;;;;39.57;30.07;;;22.40;99.90;;;;;;5122669;28;20461;-60
2023/06/21 05:05:34;;;;;;;40.47;30.00;;;22.20;99.90;;;;;;5123865;28;20464;-60
2023/06/21 05:08:01;;;;;;;41.63;31.30;;;22.20;99.90;;;;;;5121443;28;20503;-61
2023/06/21 05:10:28;;;;;;;38.17;31.20;;;22.50;99.90;;;;;;5121749;28;20464;-59
2023/06/21 05:12:57;;;;;;;41.97;33.37;;;22.40;99.90;;;;;;5121441;28;20464;-60
2023/06/21 05:15:25;;;;;;;41.83;33.07;;;22.50;99.90;;;;;;5116846;28;20472;-60
2023/06/21 05:17:52;;;;;;;43.20;31.77;;;;;;;;;;5116050;28;20477;-63
2023/06/21 05:20:20;;;;;;;40.90;33.13;;;22.70;99.90;;;;;;5117958;28;20440;-60
2023/06/21 05:22:48;;;;;;;43.73;32.47;;;;;;;;;;5116732;28;20444;-59
2023/06/21 05:25:15;;;;;;;38.83;31.27;;;;;;;;;;5119276;28;20478;-60
2023/06/21 05:27:42;;;;;;;42.90;32.33;;;23.00;99.90;;;;;;5121544;28;20471;-60
2023/06/21 05:30:10;;;;;;;45.03;32.77;;;;;;;;;;5119999;28;20480;-61
2023/06/21 05:32:38;;;;;;;40.77;30.90;;;22.90;99.90;;;;;;5119938;28;20536;-60
2023/06/21 05:35:05;;;;;;;39.60;30.07;;;23.00;99.90;;;;;;5129324;28;20464;-61
2023/06/21 05:37:32;;;;;;;36.97;31.00;;;;;;;;;;5129602;28;20539;-61
2023/06/21 05:40:02;;;;;;;36.20;28.37;;;;;;;;;;5121529;28;20503;-61
2023/06/21 05:42:29;;;;;;;36.53;27.47;;;23.30;99.90;;;;;;5122177;28;20449;-60
2023/06/21 05:45:00;;;;;;;34.50;27.97;;;23.10;99.90;;;;;;5121426;28;20476;-61
2023/06/21 05:47:27;;;;;;;35.03;25.90;;;;;;;;;;5121738;28;20429;-60
2023/06/21 05:49:58;;;;;;;33.77;27.63;;;23.30;99.90;;;;;;5121702;28;20559;-59
2023/06/21 05:52:30;;;;;;;40.60;28.00;;;23.30;99.90;;;;;;5124173;28;20436;-60
2023/06/21 05:54:57;;;;;;;32.20;26.63;;;23.70;99.90;;;;;;5114483;28;20487;-62
2023/06/21 05:57:26;;;;;;;33.17;27.10;;;;;;;;;;5115333;28;20508;-61
2023/06/21 05:59:53;;;;;;;32.30;24.77;;;23.00;99.90;;;;;;5115202;28;20529;-62
2023/06/21 06:02:20;;;;;;;35.80;27.67;;;;;;;;;;5117965;28;20456;-61
2023/06/21 06:04:48;;;;;;;37.07;27.73;;;;;;;;;;5114854;28;20954;-62
2023/06/21 06:07:17;;;;;;;33.20;27.23;;;23.30;99.90;;;;;;5115205;28;20437;-61
2023/06/21 06:09:45;;;;;;;31.77;26.17;;;;;;;;;;5115765;28;20473;-60
2023/06/21 06:12:12;;;;;;;33.60;25.87;;;23.10;99.90;;;;;;5115856;28;20924;-62
2023/06/21 06:14:39;;;;;;;28.30;24.70;;;;;;;;;;5114719;28;20476;-62
2023/06/21 06:17:06;;;;;;;32.37;26.27;;;;;;;;;;5115097;28;20496;-63
2023/06/21 06:19:33;;;;;;;29.50;24.10;;;;;;;;;;5117938;28;20513;-60
2023/06/21 06:22:00;;;;;;;27.00;24.10;;;23.60;99.90;;;;;;5126005;28;20425;-61
2023/06/21 06:24:28;;;;;;;36.80;25.03;;;23.70;99.90;;;;;;5121094;28;20488;-61
2023/06/21 06:26:55;;;;;;;30.70;25.60;;;;;;;;;;5120358;28;20686;-59
2023/06/21 06:29:23;;;;;;;31.90;27.47;;;23.60;99.90;;;;;;5122282;28;20476;-60
2023/06/21 06:31:51;;;;;;;33.20;26.77;;;;;;;;;;5120364;28;20440;-60
2023/06/21 06:34:18;;;;;;;34.03;27.33;;;;;;;;;;5115424;28;20539;-60
2023/06/21 06:36:45;;;;;;;32.90;27.00;;;;;;;;;;5115561;28;20468;-59
2023/06/21 06:39:13;;;;;;;30.43;24.33;;;23.60;99.90;;;;;;5119838;28;20524;-60
2023/06/21 06:41:41;;;;;;;31.97;26.70;;;23.60;99.90;;;;;;5127287;28;20562;-60
2023/06/21 06:44:08;;;;;;;29.50;24.70;;;23.80;99.90;;;;;;5122141;28;20496;-61
2023/06/21 06:46:35;;;;;;;26.83;22.60;;;23.80;99.90;;;;;;5120812;28;20471;-61
2023/06/21 06:49:04;;;;;;;32.57;24.10;;;;;;;;;;5126379;28;20505;-61
2023/06/21 06:51:30;;;;;;;24.80;21.10;;;23.80;99.90;;;;;;5120338;28;20952;-60
2023/06/21 06:53:57;;;;;;;23.60;19.57;;;;;;;;;;5120687;28;20524;-61
2023/06/21 06:56:25;;;;;;;30.70;20.03;;;;;;;;;;5116491;28;20559;-59
2023/06/21 06:58:53;;;;;;;22.03;19.60;;;23.70;99.90;;;;;;5116051;28;20504;-60
2023/06/21 07:01:21;;;;;;;22.10;18.20;;;;;;;;;;5135627;28;20464;-62
2023/06/21 07:03:48;;;;;;;24.50;19.30;;;;;;;;;;5120347;28;20483;-62
2023/06/21 07:06:17;;;;;;;20.10;17.00;;;24.00;99.90;;;;;;5114289;28;21051;-60
2023/06/21 07:08:44;;;;;;;19.50;16.80;;;;;;;;;;5117132;28;20965;-60
2023/06/21 07:11:11;;;;;;;22.23;18.57;;;23.90;99.90;;;;;;5117165;28;20479;-62
2023/06/21 07:13:38;;;;;;;21.30;18.20;;;24.50;99.90;;;;;;5130749;28;20444;-60
2023/06/21 07:16:06;;;;;;;23.23;20.33;;;;;;;;;;5126513;28;20476;-60
2023/06/21 07:18:34;;;;;;;19.63;17.47;;;;;;;;;;5114360;28;20534;-61
2023/06/21 07:21:02;;;;;;;18.80;15.30;;;;;;;;;;5114375;28;20472;-61
2023/06/21 07:23:29;;;;;;;18.60;16.03;;;25.00;99.90;;;;;;5116295;28;20527;-61
2023/06/21 07:25:57;;;;;;;18.27;14.80;;;;;;;;;;5119308;28;20486;-60
2023/06/21 07:28:23;;;;;;;17.33;14.73;;;25.50;99.90;;;;;;5119650;28;20500;-58
2023/06/21 07:30:51;;;;;;;20.23;15.10;;;;;;;;;;5114844;28;20440;-60
2023/06/21 07:33:19;;;;;;;21.03;15.53;;;25.40;99.90;;;;;;5114689;28;20527;-58
2023/06/21 07:35:46;;;;;;;17.20;14.27;;;25.40;99.90;;;;;;5114862;28;20460;-60
2023/06/21 07:38:13;;;;;;;16.40;14.50;;;;;;;;;;5116419;28;20511;-60
2023/06/21 07:40:40;;;;;;;16.30;13.60;;;;;;;;;;5116474;28;20455;-58
2023/06/21 07:43:08;;;;;;;16.60;13.30;;;;;;;;;;5119130;28;21055;-63
2023/06/21 07:45:36;;;;;;;19.37;14.40;;;;;;;;;;5118085;28;20479;-59
2023/06/21 07:48:03;;;;;;;16.27;14.07;;;;;;;;;;5118636;28;20496;-62
2023/06/21 07:50:31;;;;;;;14.83;13.20;;;28.20;99.90;;;;;;5118411;28;20557;-61
2023/06/21 07:52:58;;;;;;;14.67;13.17;;;;;;;;;;5117900;28;20508;-60
2023/06/21 07:55:25;;;;;;;17.37;13.63;;;;;;;;;;5119350;28;20476;-60
2023/06/21 07:57:53;;;;;;;12.97;11.60;;;;;;;;;;5120014;28;20564;-60
2023/06/21 08:00:20;;;;;;;13.90;10.87;;;;;;;;;;5117333;28;20467;-61
2023/06/21 08:02:49;;;;;;;14.10;12.67;;;29.60;99.90;;;;;;5120497;28;20510;-61
2023/06/21 08:05:17;;;;;;;14.83;12.90;;;29.20;99.90;;;;;;5120602;28;20453;-60
2023/06/21 08:07:45;;;;;;;13.17;11.47;;;29.10;99.90;;;;;;5121134;28;20524;-61
2023/06/21 08:10:12;;;;;;;12.33;11.13;;;;;;;;;;5123545;28;20857;-61
2023/06/21 08:12:39;;;;;;;13.17;11.77;;;;;;;;;;5119891;28;20492;-61
2023/06/21 08:15:07;;;;;;;15.33;13.43;;;;;;;;;;5117271;28;20429;-60
2023/06/21 08:17:34;;;;;;;17.37;12.83;;;30.80;99.90;;;;;;5117053;28;20520;-62
2023/06/21 08:20:01;;;;;;;14.10;12.60;;;;;;;;;;5119465;28;20444;-61
2023/06/21 08:22:28;;;;;;;11.97;10.80;;;;;;;;;;5122206;28;20519;-61
2023/06/21 08:24:57;;;;;;;13.33;12.03;;;32.70;99.90;;;;;;5120657;28;20488;-60
2023/06/21 08:27:24;;;;;;;12.10;10.90;;;;;;;;;;5122797;28;20448;-60
2023/06/21 08:29:51;;;;;;;17.33;12.07;;;;;;;;;;5123115;28;20499;-60
2023/06/21 08:32:19;;;;;;;14.73;13.27;;;;;;;;;;5120466;28;20510;-60
2023/06/21 08:34:47;;;;;;;13.67;11.10;;;;;;;;;;5117390;28;20519;-61
2023/06/21 08:37:13;;;;;;;14.17;12.70;;;33.40;99.90;;;;;;5116740;28;20446;-61
2023/06/21 08:39:41;;;;;;;12.07;10.97;;;;;;;;;;5117994;28;20845;-62
2023/06/21 08:42:10;;;;;;;12.43;11.20;;;33.90;99.90;;;;;;5118968;28;20509;-61
2023/06/21 08:44:37;;;;;;;13.83;11.63;;;;;;;;;;5118103;28;20476;-62
2023/06/21 08:47:07;;;;;;;12.60;11.40;;;33.80;99.90;;;;;;5118530;28;20540;-60
2023/06/21 08:49:40;;;;;;;11.47;9.90;;;34.20;99.90;;;;;;5116572;28;20789;-60
2023/06/21 08:52:10;;;;;;;13.40;11.93;;;34.60;99.90;;;;;;5116355;28;20873;-60
2023/06/21 08:54:40;;;;;;;12.03;10.83;;;34.10;99.90;;;;;;5116752;28;20495;-61
2023/06/21 08:57:16;;;;;;;11.90;10.70;;;33.20;99.90;;;;;;5117905;28;20483;-60
2023/06/21 08:59:50;;;;;;;10.73;9.57;;;32.70;99.90;;;;;;5119455;28;20487;-60
2023/06/21 09:02:27;;;;;;;11.93;10.17;;;32.70;99.90;;;;;;5119684;28;20444;-60
2023/06/21 09:04:58;;;;;;;10.90;8.30;;;32.70;99.90;;;;;;5119997;28;20470;-58
2023/06/21 09:07:25;;;;;;;10.03;9.03;;;32.90;99.90;;;;;;5119154;28;20488;-61
2023/06/21 09:09:54;;;;;;;10.37;9.33;;;33.70;99.90;;;;;;5115951;28;20476;-60
2023/06/21 09:12:24;;;;;;;9.63;8.73;;;33.80;99.90;;;;;;5116405;28;20480;-61
2023/06/21 09:14:52;;;;;;;11.37;8.73;;;33.30;99.90;;;;;;5115797;28;20480;-61
2023/06/21 09:17:20;;;;;;;9.00;8.10;;;32.40;99.90;;;;;;5116118;28;20536;-62
2023/06/21 09:19:47;;;;;;;9.83;8.60;;;;;;;;;;5118694;28;20500;-60
2023/06/21 09:22:15;;;;;;;9.03;7.33;;;32.40;99.90;;;;;;5119662;28;20500;-61
2023/06/21 09:24:44;;;;;;;8.50;7.70;;;;;;;;;;5119879;28;20494;-59
2023/06/21 09:27:11;;;;;;;10.17;8.37;;;;;;;;;;5122527;28;21216;-62
2023/06/21 09:29:40;;;;;;;9.47;8.60;;;32.10;99.90;;;;;;5118882;28;20464;-63
2023/06/21 09:32:07;;;;;;;9.90;8.77;;;;;;;;;;5120043;28;20866;-61
2023/06/21 09:34:34;;;;;;;10.07;7.73;;;32.20;99.90;;;;;;5119214;28;20472;-59
2023/06/21 09:37:01;;;;;;;9.10;8.30;;;32.00;99.90;;;;;;5119164;28;20460;-62
2023/06/21 09:39:28;;;;;;;8.53;7.70;;;31.90;99.90;;;;;;5115642;28;20508;-60
2023/06/21 09:41:56;;;;;;;9.63;8.33;;;;;;;;;;5115810;28;20477;-61
2023/06/21 09:44:24;;;;;;;8.53;7.73;;;31.10;99.90;;;;;;5115772;28;20491;-62
2023/06/21 09:46:57;;;;;;;10.37;7.50;;;30.90;99.90;;;;;;5115307;28;20445;-60
2023/06/21 09:49:28;;;;;;;8.00;7.30;;;30.80;99.90;;;;;;5115075;28;20437;-61
2023/06/21 09:51:56;;;;;;;8.50;7.23;;;30.90;99.90;;;;;;5116574;28;20446;-60
2023/06/21 09:54:23;;;;;;;8.87;7.97;;;31.10;99.90;;;;;;5119398;28;20505;-60
2023/06/21 09:56:50;;;;;;;8.50;7.70;;;;;;;;;;5115646;28;20509;-60
2023/06/21 09:59:19;;;;;;;9.00;8.10;;;31.80;99.90;;;;;;5115934;28;20559;-61
2023/06/21 10:01:49;;;;;;;8.03;7.23;;;31.90;99.90;;;;;;5118755;28;20560;-60
2023/06/21 10:04:18;;;;;;;7.73;7.03;;;31.40;99.90;;;;;;5116362;28;20528;-60
2023/06/21 10:06:50;;;;;;;9.40;7.90;;;30.90;99.90;;;;;;5115111;28;20500;-60
2023/06/21 10:09:17;;;;;;;8.13;7.00;;;30.70;99.90;;;;;;5115026;28;20460;-62
2023/06/21 10:11:45;;;;;;;11.20;6.80;;;30.80;99.90;;;;;;5115297;28;20517;-60
2023/06/21 10:14:21;;;;;;;8.47;6.87;;;30.60;99.90;;;;;;5119505;28;20532;-60
2023/06/21 10:16:51;;;;;;;8.40;7.60;;;31.00;99.90;;;;;;5125181;28;20500;-59
2023/06/21 10:19:22;;;;;;;8.30;7.50;;;30.90;99.90;;;;;;5114595;28;20480;-60
2023/06/21 10:21:52;;;;;;;7.03;6.33;;;30.10;99.90;;;;;;5131215;28;20449;-54
2023/06/21 10:24:24;;;;;;;8.40;7.60;;;29.80;99.90;;;;;;5122071;28;20515;-60
2023/06/21 10:26:52;;;;;;;8.27;7.50;;;;;;;;;;5114795;28;20567;-61
2023/06/21 10:29:20;;;;;;;8.47;7.70;;;30.30;99.90;;;;;;5115109;28;20444;-60
2023/06/21 10:31:49;;;;;;;8.57;7.30;;;31.00;99.90;;;;;;5115980;28;20472;-61
2023/06/21 10:34:22;;;;;;;8.33;7.53;;;31.10;99.90;;;;;;5114479;28;20551;-60
2023/06/21 10:36:56;;;;;;;8.63;7.70;;;30.70;99.90;;;;;;5114434;28;20500;-60
2023/06/21 10:39:25;;;;;;;7.77;7.00;;;30.50;99.90;;;;;;5137994;28;20490;-59
2023/06/21 10:41:52;;;;;;;7.43;6.73;;;;;;;;;;5122513;28;20468;-57
2023/06/21 10:44:20;;;;;;;7.60;6.63;;;29.80;99.90;;;;;;5133563;28;20490;-61
2023/06/21 10:46:49;;;;;;;7.47;6.83;;;29.30;99.90;;;;;;5127330;28;20474;-57
2023/06/21 10:49:17;;;;;;;7.97;6.10;;;;;;;;;;5118360;28;20834;-54
2023/06/21 10:51:48;;;;;;;7.10;6.40;;;29.70;99.90;;;;;;5135765;28;20444;-60
2023/06/21 10:54:16;;;;;;;7.53;6.83;;;29.10;99.90;;;;;;5119961;28;20441;-61
2023/06/21 10:56:44;;;;;;;9.67;6.83;;;29.10;99.90;;;;;;5125021;28;20441;-58
2023/06/21 10:59:13;;;;;;;8.50;7.60;;;28.60;99.90;;;;;;5126424;28;20969;-59
2023/06/21 11:01:40;;;;;;;8.10;7.30;;;;;;;;;;5137878;28;20412;-58
2023/06/21 11:04:07;;;;;;;8.47;7.60;;;;;;;;;;5121641;28;20531;-60
2023/06/21 11:06:37;;;;;;;11.17;7.20;;;28.60;99.90;;;;;;5115044;28;20467;-60
2023/06/21 11:09:11;;;;;;;7.30;6.60;;;28.80;99.90;;;;;;5120809;28;20448;-61
2023/06/21 11:11:40;;;;;;;7.30;6.70;;;28.80;99.90;;;;;;5124530;28;20413;-52
2023/06/21 11:14:08;;;;;;;8.67;6.17;;;29.20;99.90;;;;;;5125007;28;20545;-62
2023/06/21 11:16:36;;;;;;;8.30;6.07;;;29.50;99.90;;;;;;5114455;28;20450;-60
2023/06/21 11:19:05;;;;;;;5.97;5.47;;;28.50;99.90;;;;;;5114123;28;20541;-61
2023/06/21 11:21:42;;;;;;;7.67;5.70;;;29.60;99.90;;;;;;5119332;28;20520;-52
2023/06/21 11:24:11;;;;;;;10.80;6.07;;;29.70;99.90;;;;;;5133053;28;20496;-59
2023/06/21 11:26:58;;;;;;;5.70;5.20;;;29.60;99.90;;;;;;5120924;28;20865;-61
2023/06/21 11:29:28;;;;;;;6.50;5.87;;;29.50;99.90;;;;;;5116457;28;20768;-62
2023/06/21 11:32:13;;;;;;;7.10;6.40;;;29.70;99.90;;;;;;5122988;28;20432;-55
2023/06/21 11:34:56;;;;;;;6.00;5.50;;;29.20;99.90;;;;;;5134865;28;20513;-62
2023/06/21 11:37:40;;;;;;;6.47;5.87;;;28.70;99.90;;;;;;5123429;28;20468;-57
2023/06/21 11:40:11;;;;;;;7.83;5.77;;;28.50;99.90;;;;;;5127549;28;20460;-60
2023/06/21 11:42:44;;;;;;;8.20;5.47;;;28.80;99.90;;;;;;5123555;28;20757;-60
2023/06/21 11:45:26;;;;;;;7.40;5.90;;;28.20;99.90;;;;;;5118858;28;20425;-60
2023/06/21 11:48:00;;;;;;;6.20;5.43;;;28.10;99.90;;;;;;5118016;28;21000;-61
2023/06/21 11:50:33;;;;;;;5.17;4.50;;;28.00;99.90;;;;;;5117884;28;20980;-61
2023/06/21 11:53:23;;;;;;;5.70;5.20;;;28.00;99.90;;;;;;5117632;28;20532;-60
2023/06/21 11:55:56;;;;;;;6.03;5.43;;;27.90;99.90;;;;;;5125767;28;20529;-58
2023/06/21 11:58:24;;;;;;;5.87;5.30;;;27.90;99.90;;;;;;5123157;28;20862;-59
2023/06/21 12:00:52;;;;;;;6.23;5.63;;;28.00;99.90;;;;;;5117448;28;20483;-59
2023/06/21 12:03:47;;;;;;;7.07;5.60;;;27.80;99.90;;;;;;5125693;28;20460;-56
2023/06/21 12:06:17;;;;;;;7.83;5.50;;;27.80;99.90;;;;;;5126072;28;20793;-60
2023/06/21 12:08:44;;;;;;;6.90;6.20;;;27.70;99.90;;;;;;5117386;28;20818;-61
2023/06/21 12:11:12;;;;;;;6.40;5.80;;;27.80;99.90;;;;;;5117313;28;20501;-61
2023/06/21 12:13:40;;;;;;;7.83;5.30;;;;;;;;;;5117373;28;20917;-59
2023/06/21 12:16:08;;;;;;;5.80;5.00;;;27.90;99.90;;;;;;5121937;28;20452;-59
2023/06/21 12:18:36;;;;;;;6.30;5.43;;;28.10;99.90;;;;;;5122320;28;20471;-60
2023/06/21 12:21:06;;;;;;;6.23;5.27;;;28.90;99.90;;;;;;5127886;28;20437;-61
2023/06/21 12:23:34;;;;;;;6.90;6.20;;;28.50;99.90;;;;;;5124010;28;20477;-62
2023/06/21 12:26:02;;;;;;;6.67;5.97;;;28.30;99.90;;;;;;5122409;28;20476;-60
2023/06/21 12:28:31;;;;;;;6.83;6.13;;;28.80;99.90;;;;;;5135307;28;20474;-61
2023/06/21 12:31:01;;;;;;;6.77;6.03;;;28.40;99.90;;;;;;5130764;28;20452;-60
2023/06/21 12:33:29;;;;;;;6.10;5.50;;;28.60;99.90;;;;;;5122148;28;20449;-61
2023/06/21 12:36:11;;;;;;;7.47;5.80;;;28.20;99.90;;;;;;5120400;28;20488;-59
2023/06/21 12:38:38;;;;;;;6.70;6.10;;;;;;;;;;5120596;28;20432;-60
2023/06/21 12:41:05;;;;;;;5.77;5.23;;;;;;;;;;5124441;28;20529;-60
2023/06/21 12:43:35;;;;;;;6.30;5.80;;;28.40;99.90;;;;;;5118941;28;20509;-59
2023/06/21 12:46:03;;;;;;;5.77;5.27;;;28.60;99.90;;;;;;5119841;28;20496;-60
2023/06/21 12:48:31;;;;;;;7.00;6.20;;;;;;;;;;5123340;28;20531;-60
2023/06/21 12:50:58;;;;;;;7.07;6.20;;;;;;;;;;5116536;28;21018;-61
2023/06/21 12:53:25;;;;;;;6.33;5.57;;;28.60;99.90;;;;;;5116384;28;20533;-60
2023/06/21 12:55:53;;;;;;;6.97;6.23;;;;;;;;;;5120281;28;20448;-60
2023/06/21 12:58:20;;;;;;;9.43;5.40;;;28.70;99.90;;;;;;5123607;28;20444;-60
2023/06/21 13:00:49;;;;;;;9.30;6.13;;;28.50;99.90;;;;;;5120137;28;20797;-62
2023/06/21 13:03:20;;;;;;;6.47;5.90;;;29.00;99.90;;;;;;5119212;28;20429;-59
2023/06/21 13:05:48;;;;;;;13.43;9.83;;;;;;;;;;5124525;28;20545;-63
2023/06/21 13:08:15;;;;;;;6.00;5.40;;;28.50;99.90;;;;;;5118564;28;20500;-60
2023/06/21 13:10:42;;;;;;;7.67;5.80;;;;;;;;;;5115834;28;20474;-61
2023/06/21 13:13:09;;;;;;;7.40;6.10;;;;;;;;;;5116060;28;20520;-61
2023/06/21 13:15:36;;;;;;;7.33;6.43;;;;;;;;;;5116120;28;20484;-65
2023/06/21 13:18:04;;;;;;;5.17;4.70;;;28.70;99.90;;;;;;5116059;28;20487;-63